Terminal Aerodrome Forecast
Issued by NWS Binghamton, NY

Home | Current Version | Previous Version | Text Only | Print | Product List | Glossary On
Versions: 1 2 3 4 5 6 7 8 9 10 11 12 13 14 15 16
000
FTUS41 KBGM 261738
TAFBGM
TAF
KBGM 261738Z 2618/2718 20007KT P6SM SCT040 BKN100
      TEMPO 2620/2624 5SM -SHRA BR OVC040
     FM270200 20005KT P6SM BKN040=

USA.gov is the U.S. government's official web portal to all federal, state and local government web resources and services.